Time;durP1;ratioP1;P1;durP2;ratioP2;P2;SDS_P1;SDS_P2;PMS_P1;PMS_P2;Temp;Humidity;BMP_temperature;BMP_pressure;BME280_temperature;BME280_humidity;BME280_pressure;Samples;Min_cycle;Max_cycle;Signal;HPM_P1;HPM_P2
2022/02/05 00:01:41;;;;;;;3.13;1.02;;;;;;;25.79;30.40;96749.84;5010813;28;20073;-30
2022/02/05 00:04:11;;;;;;;3.72;0.60;;;;;;;25.78;30.31;96758.63;5008163;28;20041;-30
2022/02/05 00:06:40;;;;;;;1.98;0.77;;;;;;;25.78;30.37;96768.28;5010400;28;20037;-37
2022/02/05 00:43:59;;;;;;;1.42;0.70;;;;;;;25.74;30.09;96830.59;4997329;28;20669;-32
2022/02/05 00:46:27;;;;;;;1.85;0.68;;;;;;;25.75;30.26;96832.31;5005738;28;20472;-33
2022/02/05 00:48:53;;;;;;;2.13;0.75;;;;;;;25.72;29.81;96821.97;4993257;28;20117;-33
2022/02/05 00:51:24;;;;;;;4.13;0.52;;;;;;;25.74;30.12;96825.34;4992553;28;20033;-31
2022/02/05 00:54:01;;;;;;;;;;;;;;;25.75;30.12;96832.31;4988901;28;20037;-30
2022/02/05 00:56:48;;;;;;;0.95;0.65;;;;;;;25.76;30.15;96828.75;4993676;28;19967;-29
2022/02/05 00:59:12;;;;;;;1.17;0.77;;;;;;;25.74;30.10;96840.25;4988949;28;20040;-29
2022/02/05 01:01:38;;;;;;;1.77;0.63;;;;;;;25.74;30.21;96829.75;4994304;28;20468;-28
2022/02/05 01:04:03;;;;;;;1.15;0.68;;;;;;;25.74;30.14;96841.09;4992011;28;20034;-30
2022/02/05 01:06:29;;;;;;;1.15;0.55;;;;;;;25.74;30.28;96845.50;4991749;28;20087;-30
2022/02/05 01:08:54;;;;;;;1.70;0.60;;;;;;;25.74;30.15;96853.38;4992543;28;20030;-30
2022/02/05 01:11:20;;;;;;;0.82;0.60;;;;;;;25.72;30.12;96856.06;4993725;28;20033;-30
2022/02/05 01:13:45;;;;;;;2.47;0.73;;;;;;;25.73;30.10;96863.00;4992663;28;20033;-29
2022/02/05 01:18:39;;;;;;;1.27;0.73;;;;;;;25.73;30.20;96865.63;4995522;28;20071;-29
2022/02/05 01:21:10;;;;;;;1.58;0.60;;;;;;;25.73;30.06;96876.13;4990276;28;20120;-31
2022/02/05 01:26:13;;;;;;;1.17;0.52;;;;;;;25.74;30.16;96883.06;4990802;28;20510;-31
2022/02/05 01:28:40;;;;;;;1.05;0.68;;;;;;;25.72;30.25;96887.56;5005622;28;20091;-36
2022/02/05 01:31:06;;;;;;;1.70;0.68;;;;;;;25.72;30.08;96881.47;4999783;28;20068;-34
2022/02/05 01:33:56;;;;;;;1.63;0.73;;;;;;;25.72;30.27;96884.94;4997276;28;20045;-30
2022/02/05 01:39:39;;;;;;;1.08;0.38;;;;;;;25.71;30.25;96885.88;4994271;28;20042;-30
2022/02/05 01:51:37;;;;;;;1.58;0.60;;;;;;;25.69;30.09;96898.22;4988978;28;21690;-31
2022/02/05 01:53:25;;;;;;;0.90;0.50;;;;;;;25.67;30.03;96887.78;4994732;28;20081;-29
2022/02/05 01:58:54;;;;;;;0.82;0.52;;;;;;;25.68;30.07;96900.00;4992680;28;19995;-29
2022/02/05 02:07:06;;;;;;;1.33;0.57;;;;;;;25.65;29.98;96900.16;4992521;28;20135;-31
2022/02/05 02:09:58;;;;;;;1.05;0.50;;;;;;;25.65;30.07;96905.41;4994365;28;20046;-30
2022/02/05 02:12:27;;;;;;;0.85;0.40;;;;;;;25.66;30.16;96901.03;4992369;28;20029;-30
2022/02/05 02:15:04;;;;;;;1.33;0.75;;;;;;;25.66;30.18;96907.09;4991516;28;20022;-31
2022/02/05 02:22:57;;;;;;;0.65;0.60;;;;;;;25.65;30.08;96915.06;4990558;28;20033;-31
2022/02/05 02:28:03;;;;;;;1.08;0.50;;;;;;;25.65;30.15;96915.06;4994608;28;20025;-32
2022/02/05 02:30:33;;;;;;;0.90;0.50;;;;;;;25.65;30.07;96915.06;4994320;28;20030;-30
2022/02/05 02:33:11;;;;;;;0.73;0.40;;;;;;;25.64;30.19;96919.47;4993419;28;20073;-29
2022/02/05 02:35:42;;;;;;;0.88;0.50;;;;;;;25.65;30.13;96920.28;4992368;28;20571;-28
2022/02/05 02:38:12;;;;;;;0.87;0.67;;;;;;;25.64;30.17;96914.22;4993200;28;20029;-26
2022/02/05 02:40:44;;;;;;;2.67;0.57;;;;;;;25.65;30.08;96921.16;4995674;28;20411;-28
2022/02/05 02:43:19;;;;;;;1.48;0.57;;;;;;;25.64;30.15;96923.84;4995996;28;20032;-30
2022/02/05 02:45:46;;;;;;;1.38;0.68;;;;;;;25.65;30.17;96917.69;4996255;28;20081;-31
2022/02/05 02:48:12;;;;;;;0.88;0.50;;;;;;;25.65;30.03;96925.53;4997120;28;20041;-34
2022/02/05 02:56:31;;;;;;;1.20;0.55;;;;;;;25.63;30.08;96928.25;4997139;28;20040;-29
2022/02/05 02:59:49;;;;;;;1.38;0.60;;;;;;;25.63;30.20;96944.00;4994808;28;20029;-29
2022/02/05 03:01:43;;;;;;;0.98;0.57;;;;;;;25.63;30.09;96937.91;5000511;28;20052;-30
2022/02/05 03:04:08;;;;;;;1.02;0.40;;;;;;;25.62;29.99;96936.22;4989274;28;20033;-31
2022/02/05 03:06:34;;;;;;;1.02;0.50;;;;;;;25.56;30.05;96927.69;4987445;28;20018;-31
2022/02/05 03:08:59;;;;;;;0.70;0.30;;;;;;;25.61;30.07;96930.09;4971470;28;20136;-35
2022/02/05 03:11:25;;;;;;;0.80;0.40;;;;;;;25.62;30.12;96941.47;5002400;28;20344;-30
2022/02/05 03:13:50;;;;;;;0.90;0.40;;;;;;;25.61;30.13;96935.34;4995583;28;20032;-29
2022/02/05 03:16:22;;;;;;;1.08;0.60;;;;;;;25.61;30.04;96931.88;5002922;28;20029;-32
2022/02/05 03:19:01;;;;;;;0.40;0.40;;;;;;;25.59;30.12;96941.63;5001960;28;20279;-30
2022/02/05 03:21:26;;;;;;;2.25;0.50;;;;;;;25.60;30.07;96946.78;5004757;28;20026;-29
2022/02/05 03:23:52;;;;;;;1.38;0.70;;;;;;;25.60;30.21;96943.31;5002758;28;20037;-30
2022/02/05 03:26:18;;;;;;;1.27;0.30;;;;;;;25.60;30.13;96953.81;4994053;28;20034;-30
2022/02/05 03:28:43;;;;;;;0.95;0.47;;;;;;;25.60;29.99;96956.44;5002412;28;20038;-30
2022/02/05 03:31:08;;;;;;;0.40;0.30;;;;;;;25.59;30.10;96955.56;5002362;28;20514;-31
2022/02/05 03:33:34;;;;;;;1.25;0.43;;;;;;;25.60;30.10;96956.44;5001762;28;20037;-30
2022/02/05 03:35:59;;;;;;;0.47;0.30;;;;;;;25.59;30.01;96962.59;5003086;28;20025;-31
2022/02/05 03:38:25;;;;;;;0.60;0.40;;;;;;;25.60;30.24;96959.03;5001299;28;20072;-26
2022/02/05 03:40:50;;;;;;;0.30;0.30;;;;;;;25.60;29.93;96964.28;4993726;28;20037;-29
2022/02/05 03:43:15;;;;;;;5.20;0.70;;;;;;;25.60;29.89;96969.53;4995105;28;20025;-31
2022/02/05 03:45:41;;;;;;;2.72;0.60;;;;;;;25.58;29.92;96972.25;4991035;28;20823;-25
2022/02/05 03:48:06;;;;;;;0.70;0.50;;;;;;;25.57;29.85;96971.41;4997769;28;20038;-29
2022/02/05 03:50:32;;;;;;;0.80;0.50;;;;;;;25.57;29.92;96981.91;5001196;28;20536;-32
2022/02/05 03:52:58;;;;;;;1.10;0.43;;;;;;;25.57;30.06;96981.03;4992834;28;20031;-28
2022/02/05 03:55:24;;;;;;;1.45;0.43;;;;;;;25.56;30.03;96985.44;4991074;28;20033;-29
2022/02/05 03:57:50;;;;;;;0.40;0.40;;;;;;;25.55;30.07;96978.47;4992372;28;20026;-30
2022/02/05 04:00:15;;;;;;;0.43;0.30;;;;;;;25.55;30.08;96994.22;4991809;28;21019;-35
2022/02/05 04:02:41;;;;;;;0.75;0.30;;;;;;;25.55;30.03;96999.44;4993423;28;20037;-30
2022/02/05 04:05:07;;;;;;;0.20;0.20;;;;;;;25.56;30.12;97006.44;4990230;28;20029;-30
2022/02/05 04:07:36;;;;;;;0.50;0.50;;;;;;;25.55;30.15;97002.06;5005695;28;20096;-30
2022/02/05 04:10:04;;;;;;;1.35;0.50;;;;;;;25.56;29.98;97005.59;4997861;28;20612;-32
2022/02/05 04:17:58;;;;;;;0.65;0.43;;;;;;;25.55;30.06;97025.69;4995438;28;20072;-33
2022/02/05 04:20:23;;;;;;;0.47;0.40;;;;;;;25.56;30.05;97026.59;4991383;28;20033;-29
2022/02/05 04:22:49;;;;;;;0.80;0.40;;;;;;;25.56;30.12;97031.84;4992757;28;20116;-27
2022/02/05 04:25:14;;;;;;;1.08;0.30;;;;;;;25.55;30.15;97025.69;4992714;28;20772;-33
2022/02/05 04:27:39;;;;;;;0.95;0.30;;;;;;;25.55;30.23;97030.94;4988810;28;20078;-28
2022/02/05 04:30:05;;;;;;;0.55;0.40;;;;;;;25.53;29.89;97032.81;4995382;28;20456;-30
2022/02/05 04:32:31;;;;;;;1.58;0.50;;;;;;;25.54;30.16;97042.38;4992858;28;20518;-32
2022/02/05 04:34:56;;;;;;;1.27;0.32;;;;;;;25.54;30.04;97047.63;4989141;28;20033;-29
2022/02/05 04:37:24;;;;;;;0.40;0.40;;;;;;;25.55;30.08;97051.09;4991115;28;20447;-35
2022/02/05 04:40:03;;;;;;;0.90;0.32;;;;;;;25.55;30.16;97048.47;4992119;28;20535;-31
2022/02/05 04:42:40;;;;;;;0.50;0.40;;;;;;;25.54;30.17;97052.88;4988232;28;22062;-32
2022/02/05 04:45:50;;;;;;;0.30;0.30;;;;;;;25.53;30.19;97053.81;4982007;28;20041;-32
2022/02/05 05:04:32;;;;;;;1.65;0.55;;;;;;;25.50;30.16;97061.81;5001841;28;20511;-31
2022/02/05 05:15:35;;;;;;;0.68;0.30;;;;;;;25.48;30.20;97068.91;5019996;28;20049;-33
2022/02/05 05:20:52;;;;;;;1.27;0.28;;;;;;;25.47;30.06;97068.97;4999307;28;20661;-28
2022/02/05 05:23:17;;;;;;;0.73;0.30;;;;;;;25.48;30.21;97073.31;4996894;28;20036;-29
2022/02/05 05:25:43;;;;;;;0.57;0.35;;;;;;;25.46;30.23;97070.75;4997872;28;20033;-32
2022/02/05 05:28:08;;;;;;;0.57;0.30;;;;;;;25.47;30.25;97077.69;4997105;28;20087;-32
2022/02/05 05:30:34;;;;;;;0.40;0.38;;;;;;;25.47;30.22;97075.06;5009706;28;20044;-31
2022/02/05 05:32:59;;;;;;;0.75;0.38;;;;;;;25.47;30.10;97077.69;5001700;28;20086;-31
2022/02/05 05:35:24;;;;;;;1.30;0.40;;;;;;;25.47;30.23;97080.31;5003339;28;20025;-30
2022/02/05 05:37:50;;;;;;;0.35;0.20;;;;;;;25.46;30.23;97078.63;4999130;28;20022;-31
2022/02/05 05:40:16;;;;;;;0.52;0.50;;;;;;;25.46;30.13;97068.13;4994785;28;20038;-26
2022/02/05 05:42:46;;;;;;;0.35;0.30;;;;;;;25.48;30.04;97082.03;4998352;28;20589;-33
2022/02/05 05:45:36;;;;;;;0.50;0.32;;;;;;;25.48;30.20;97075.94;4998004;28;20037;-28
2022/02/05 05:48:13;;;;;;;1.10;0.52;;;;;;;25.47;30.22;97069.81;4999307;28;20566;-30
2022/02/05 05:53:10;;;;;;;0.10;0.10;;;;;;;25.47;30.18;97080.31;4995063;28;20615;-28
2022/02/05 05:55:35;;;;;;;0.40;0.38;;;;;;;25.48;30.19;97087.28;4993360;28;20034;-33
2022/02/05 05:58:01;;;;;;;0.65;0.40;;;;;;;25.47;30.10;97088.19;4998860;28;20052;-29
2022/02/05 06:00:27;;;;;;;0.65;0.30;;;;;;;25.47;30.08;97090.81;5002611;28;20026;-28
2022/02/05 06:02:52;;;;;;;0.32;0.20;;;;;;;25.48;30.13;97096.91;5006570;28;20048;-33
2022/02/05 06:05:18;;;;;;;0.13;0.13;;;;;;;25.47;30.08;97101.31;5013744;28;20571;-29
2022/02/05 06:07:43;;;;;;;0.45;0.20;;;;;;;25.48;30.24;97112.66;5007004;28;20044;-29
2022/02/05 06:10:09;;;;;;;0.50;0.30;;;;;;;25.48;30.17;97113.53;5003693;28;20036;-30
2022/02/05 06:12:34;;;;;;;1.00;0.47;;;;;;;25.48;30.08;97113.53;5007718;28;20053;-29
2022/02/05 06:15:03;;;;;;;0.22;0.22;;;;;;;25.49;30.17;97111.72;5005158;28;20565;-28
2022/02/05 06:17:28;;;;;;;0.68;0.30;;;;;;;25.49;30.09;97114.34;5004430;28;20507;-29
2022/02/05 06:19:54;;;;;;;0.32;0.28;;;;;;;25.49;30.10;97112.59;5004472;28;20025;-30
2022/02/05 06:22:20;;;;;;;0.50;0.30;;;;;;;25.49;30.16;97116.97;5002652;28;20033;-29
2022/02/05 06:24:45;;;;;;;0.43;0.30;;;;;;;25.50;30.00;97123.91;5003536;28;20038;-29
2022/02/05 06:27:11;;;;;;;0.65;0.32;;;;;;;25.51;30.37;97117.78;5006200;28;20046;-28
2022/02/05 06:29:36;;;;;;;0.30;0.30;;;;;;;25.51;30.19;97121.22;5004676;28;20030;-28
2022/02/05 06:32:02;;;;;;;0.32;0.30;;;;;;;25.51;30.04;97123.03;5004901;28;20030;-27
2022/02/05 06:34:27;;;;;;;0.47;0.30;;;;;;;25.52;30.13;97127.34;5002182;28;20049;-28
2022/02/05 06:36:53;;;;;;;0.45;0.38;;;;;;;25.53;30.02;97127.28;5004904;28;20021;-31
2022/02/05 06:39:19;;;;;;;1.02;0.40;;;;;;;25.52;30.08;97136.03;5001453;28;20045;-31
2022/02/05 06:41:44;;;;;;;1.48;0.30;;;;;;;25.52;30.03;97136.03;4993524;28;20060;-29
2022/02/05 06:44:11;;;;;;;0.40;0.30;;;;;;;25.53;30.16;97137.75;4991830;28;20491;-28
2022/02/05 06:46:36;;;;;;;3.58;0.68;;;;;;;25.54;30.14;97139.47;4995066;28;20672;-28
2022/02/05 06:49:01;;;;;;;7.13;1.70;;;;;;;25.54;30.22;97134.22;4996882;28;20120;-29
2022/02/05 06:51:27;;;;;;;10.57;2.58;;;;;;;25.54;30.08;97147.34;4992787;28;20081;-31
2022/02/05 06:53:52;;;;;;;20.98;3.10;;;;;;;25.54;30.04;97141.22;4994101;28;20299;-32
2022/02/05 06:56:18;;;;;;;12.40;2.95;;;;;;;25.55;30.13;97142.94;4994933;28;20030;-28
2022/02/05 06:58:43;;;;;;;14.10;3.00;;;;;;;25.56;30.15;97140.25;4991626;28;20577;-30
2022/02/05 07:01:08;;;;;;;10.35;2.95;;;;;;;25.55;29.40;97140.31;4998887;28;20067;-33
2022/02/05 07:03:34;;;;;;;15.10;3.08;;;;;;;25.54;29.49;97143.84;4997645;28;20041;-28
2022/02/05 07:05:59;;;;;;;8.60;2.67;;;;;;;25.54;29.44;97157.84;4998228;28;20033;-28
2022/02/05 07:08:25;;;;;;;10.80;2.50;;;;;;;25.54;29.67;97157.84;4995189;28;20029;-30
2022/02/05 07:10:51;;;;;;;11.93;3.25;;;;;;;25.54;29.57;97160.47;4996143;28;20040;-30
2022/02/05 07:13:19;;;;;;;11.43;2.92;;;;;;;25.54;29.81;97160.47;4995726;28;20025;-30
2022/02/05 07:16:08;;;;;;;9.00;3.00;;;;;;;25.56;29.85;97152.56;4993213;28;20021;-33
2022/02/05 07:18:44;;;;;;;13.35;3.00;;;;;;;25.56;29.87;97153.38;4993845;28;20044;-31
2022/02/05 07:23:48;;;;;;;13.38;2.78;;;;;;;25.57;29.90;97165.59;4995438;28;20471;-32
2022/02/05 07:29:16;;;;;;;14.65;2.83;;;;;;;25.61;29.93;97170.69;4999617;28;20439;-29
2022/02/05 07:31:43;;;;;;;14.57;3.08;;;;;;;25.61;29.90;97168.06;5012177;28;20030;-32
2022/02/05 07:34:08;;;;;;;7.57;2.88;;;;;;;25.62;30.00;97175.03;5010461;28;20037;-29
2022/02/05 07:36:34;;;;;;;7.78;2.53;;;;;;;25.63;30.00;97180.19;4999408;28;20036;-31
2022/02/05 07:38:59;;;;;;;7.05;2.58;;;;;;;25.62;29.83;97186.38;4994033;28;20040;-28
2022/02/05 07:41:24;;;;;;;11.20;2.88;;;;;;;25.63;30.01;97189.84;4999741;28;20029;-30
2022/02/05 07:43:50;;;;;;;7.20;2.50;;;;;;;25.65;29.92;97194.09;4997937;28;20034;-29
2022/02/05 07:46:15;;;;;;;7.43;2.78;;;;;;;25.67;29.90;97191.41;4996379;28;20496;-31
2022/02/05 07:48:41;;;;;;;7.63;2.53;;;;;;;25.65;30.01;97188.00;4996633;28;20452;-30
2022/02/05 07:51:06;;;;;;;6.47;1.75;;;;;;;25.67;29.80;97192.25;4988983;28;20176;-31
2022/02/05 07:53:32;;;;;;;5.85;2.50;;;;;;;25.67;29.91;97199.28;4996440;28;20048;-31
2022/02/05 07:55:58;;;;;;;9.73;2.70;;;;;;;25.67;29.87;97197.50;4998222;28;20079;-28
2022/02/05 07:58:23;;;;;;;6.05;2.45;;;;;;;25.68;29.84;97204.47;4997079;28;20034;-28
2022/02/05 08:00:49;;;;;;;7.75;2.30;;;;;;;25.64;30.05;97197.66;5005324;28;20033;-27
2022/02/05 08:03:15;;;;;;;8.82;2.25;;;;;;;25.69;30.05;97203.53;4998234;28;20056;-30
2022/02/05 08:05:40;;;;;;;5.72;2.10;;;;;;;25.71;29.89;97208.72;4995680;28;20211;-30
2022/02/05 08:08:10;;;;;;;7.45;2.28;;;;;;;25.73;29.88;97209.50;4997233;28;20424;-32
2022/02/05 08:10:39;;;;;;;6.30;2.38;;;;;;;25.73;29.09;97206.88;4996524;28;20115;-31
2022/02/05 08:13:04;;;;;;;10.15;2.35;;;;;;;25.74;29.21;97205.94;4995799;28;20037;-30
2022/02/05 08:15:31;;;;;;;7.47;2.42;;;;;;;25.74;29.49;97202.47;4998422;28;20029;-29
2022/02/05 08:17:58;;;;;;;6.07;2.00;;;;;;;25.76;29.43;97211.13;4998746;28;20030;-30
2022/02/05 08:20:23;;;;;;;6.03;2.30;;;;;;;25.76;29.56;97205.88;4996706;28;20037;-30
2022/02/05 08:22:50;;;;;;;5.28;2.00;;;;;;;25.76;29.63;97212.00;4999319;28;20025;-28
2022/02/05 08:25:17;;;;;;;7.38;2.33;;;;;;;25.77;29.69;97213.69;4997319;28;20033;-28
2022/02/05 08:27:42;;;;;;;6.80;2.30;;;;;;;25.79;29.73;97211.84;4999663;28;20560;-30
2022/02/05 08:30:11;;;;;;;6.00;2.22;;;;;;;25.80;29.88;97212.69;4996267;28;20034;-30
2022/02/05 08:32:36;;;;;;;6.60;2.22;;;;;;;25.81;29.13;97206.50;4992476;28;20033;-29
2022/02/05 08:35:02;;;;;;;11.90;2.20;;;;;;;25.81;29.18;97215.25;4989565;28;20590;-29
2022/02/05 08:37:29;;;;;;;7.97;2.00;;;;;;;25.82;28.94;97216.94;4994299;28;20049;-30
2022/02/05 08:39:54;;;;;;;7.28;2.08;;;;;;;25.83;28.69;97223.88;4993202;28;20037;-32
2022/02/05 08:42:20;;;;;;;9.38;2.25;;;;;;;25.86;28.66;97235.19;4972453;28;20087;-30
2022/02/05 08:44:45;;;;;;;5.72;2.40;;;;;;;25.87;28.43;97229.00;4989372;28;21393;-31
2022/02/05 08:47:10;;;;;;;6.50;2.25;;;;;;;25.88;28.42;97241.19;4992036;28;20635;-29
2022/02/05 08:49:36;;;;;;;6.35;2.10;;;;;;;25.90;28.32;97239.38;4987688;28;20044;-26
2022/02/05 08:52:05;;;;;;;6.40;2.25;;;;;;;25.90;28.10;97245.47;4988962;28;20029;-30
2022/02/05 08:54:31;;;;;;;7.90;2.13;;;;;;;25.90;28.18;97239.38;4989586;28;20036;-30
2022/02/05 08:56:57;;;;;;;6.93;2.22;;;;;;;25.90;28.21;97242.00;4991058;28;20143;-28
2022/02/05 08:59:23;;;;;;;4.22;1.42;;;;;;;25.93;28.30;97244.50;4986125;28;20088;-29
2022/02/05 09:01:58;;;;;;;4.82;2.13;;;;;;;25.94;28.44;97235.69;4994674;28;20655;-28
2022/02/05 09:04:37;;;;;;;4.53;2.25;;;;;;;25.95;28.41;97232.13;4987945;28;20060;-30
2022/02/05 09:07:03;;;;;;;5.00;1.88;;;;;;;25.95;28.45;97232.13;4986805;28;20026;-29
2022/02/05 09:12:18;;;;;;;5.75;2.08;;;;;;;25.99;28.44;97233.69;4991702;28;20424;-29
2022/02/05 09:14:46;;;;;;;2.97;1.52;;;;;;;26.02;28.52;97246.69;4987332;28;22519;-29
2022/02/05 09:17:12;;;;;;;9.45;2.30;;;;;;;26.02;28.49;97236.19;4990498;28;21067;-31
2022/02/05 09:19:38;;;;;;;4.55;2.08;;;;;;;26.03;28.39;97230.00;4988920;28;20033;-30
2022/02/05 09:22:05;;;;;;;4.40;2.33;;;;;;;26.05;28.45;97227.31;4971639;28;20033;-25
2022/02/05 09:24:31;;;;;;;8.00;2.10;;;;;;;26.05;28.48;97222.88;4992011;28;20524;-29
2022/02/05 09:27:00;;;;;;;4.53;1.67;;;;;;;26.07;28.43;97235.94;4992347;28;20045;-28
2022/02/05 09:29:27;;;;;;;5.00;2.08;;;;;;;26.08;28.59;97225.38;4995044;28;20073;-27
2022/02/05 09:31:52;;;;;;;5.28;2.10;;;;;;;26.09;28.61;97237.56;5000210;28;20038;-28
2022/02/05 09:34:18;;;;;;;10.35;1.90;;;;;;;26.12;28.60;97233.94;4994019;28;20764;-29
2022/02/05 09:36:43;;;;;;;4.35;1.80;;;;;;;26.15;28.56;97232.94;4998060;28;20026;-28
2022/02/05 09:39:10;;;;;;;6.47;2.60;;;;;;;26.12;26.20;97238.38;4988513;28;20099;-29
2022/02/05 09:41:35;;;;;;;13.48;3.03;;;;;;;25.98;24.06;97234.63;4989537;28;20040;-28
2022/02/05 09:44:01;;;;;;;7.47;2.85;;;;;;;25.77;21.65;97231.19;4990251;28;20025;-31
2022/02/05 09:46:26;;;;;;;6.30;2.92;;;;;;;25.49;20.82;97235.06;4988938;28;20238;-28
2022/02/05 09:48:52;;;;;;;14.50;3.60;;;;;;;25.22;21.34;97232.72;4987114;28;20060;-29
2022/02/05 09:51:25;;;;;;;9.40;3.65;;;;;;;25.02;21.82;97237.91;4995668;28;20030;-26
2022/02/05 09:53:53;;;;;;;16.70;3.60;;;;;;;24.90;22.51;97234.06;4998366;28;20021;-28
2022/02/05 09:56:18;;;;;;;10.07;3.00;;;;;;;24.84;22.86;97239.56;4996573;28;20118;-37
2022/02/05 09:58:44;;;;;;;9.88;3.25;;;;;;;24.85;23.39;97248.28;4988904;28;20041;-27
2022/02/05 10:01:14;;;;;;;9.00;2.90;;;;;;;24.85;23.79;97245.66;4994148;28;20041;-28
2022/02/05 10:03:42;;;;;;;10.18;2.60;;;;;;;24.88;24.19;97246.38;5003757;28;20033;-28
2022/02/05 10:06:17;;;;;;;13.02;2.78;;;;;;;24.93;24.15;97248.81;5005759;28;20132;-28
2022/02/05 10:09:05;;;;;;;7.85;2.70;;;;;;;24.98;24.48;97252.06;4998858;28;20033;-28
2022/02/05 10:11:30;;;;;;;8.27;2.60;;;;;;;25.04;24.67;97254.44;5001544;28;20056;-30
2022/02/05 10:14:21;;;;;;;7.53;2.83;;;;;;;25.10;24.67;97250.72;5001385;28;20033;-29
2022/02/05 10:16:57;;;;;;;6.65;2.53;;;;;;;25.16;24.95;97254.81;5002434;28;20033;-27
2022/02/05 10:19:23;;;;;;;6.60;2.35;;;;;;;25.21;25.13;97257.28;5000714;28;20118;-28
2022/02/05 10:22:05;;;;;;;9.13;2.30;;;;;;;25.25;25.24;97257.06;4998396;28;20150;-28
2022/02/05 10:24:31;;;;;;;5.43;2.63;;;;;;;25.31;25.35;97253.31;4998695;28;20140;-29
2022/02/05 10:26:56;;;;;;;8.80;3.83;;;;;;;25.35;25.35;97251.44;4999116;28;20040;-26
2022/02/05 10:29:22;;;;;;;14.85;3.45;;;;;;;25.38;25.23;97253.91;5013134;28;20329;-28
2022/02/05 10:34:59;;;;;;;8.43;3.38;;;;;;;25.44;25.35;97264.97;4991457;28;20058;-29
2022/02/05 10:37:29;;;;;;;10.27;3.03;;;;;;;25.45;25.38;97250.09;4990980;28;20260;-29
2022/02/05 10:45:10;;;;;;;11.60;2.90;;;;;;;25.45;25.59;97261.41;4992681;28;20008;-30
2022/02/05 10:47:55;;;;;;;15.25;2.75;;;;;;;25.44;25.70;97259.72;4992709;28;20416;-31
2022/02/05 10:50:25;;;;;;;15.13;2.63;;;;;;;25.44;25.96;97269.38;4991791;28;20061;-29
2022/02/05 10:52:59;;;;;;;13.98;2.90;;;;;;;25.45;26.02;97265.84;4998701;28;20060;-29
2022/02/05 10:55:51;;;;;;;9.50;2.33;;;;;;;25.43;26.21;97272.91;4999349;28;20033;-28
2022/02/05 11:05:58;;;;;;;12.23;2.60;;;;;;;25.48;26.73;97273.56;5001513;28;20613;-29
2022/02/05 11:08:24;;;;;;;7.70;2.10;;;;;;;25.45;26.82;97271.09;5002484;28;20326;-28
2022/02/05 11:21:08;;;;;;;5.70;2.40;;;;;;;25.53;27.15;97271.59;4999987;28;20064;-26
2022/02/05 11:23:34;;;;;;;6.57;2.10;;;;;;;25.55;27.08;97266.28;5000104;28;20663;-33
2022/02/05 11:25:59;;;;;;;11.00;2.17;;;;;;;25.54;27.21;97268.03;5008574;28;20038;-31
2022/02/05 11:28:44;;;;;;;5.53;1.67;;;;;;;25.56;27.51;97270.63;4995696;28;20040;-30
2022/02/05 11:31:11;;;;;;;6.93;2.20;;;;;;;25.57;27.52;97260.06;5008465;28;20433;-28
2022/02/05 11:33:37;;;;;;;7.38;2.20;;;;;;;25.59;27.44;97267.03;5010663;28;20029;-32
2022/02/05 11:38:42;;;;;;;9.85;2.17;;;;;;;25.61;27.63;97266.03;5001487;28;20175;-30
2022/02/05 11:41:22;;;;;;;13.68;1.90;;;;;;;25.63;27.79;97273.84;5001656;28;20034;-30
2022/02/05 11:43:48;;;;;;;13.50;1.80;;;;;;;25.64;27.85;97259.78;4996140;28;20041;-28
2022/02/05 11:46:14;;;;;;;6.78;1.77;;;;;;;25.61;27.87;97254.66;5018127;28;20159;-28
2022/02/05 11:48:53;;;;;;;6.05;1.60;;;;;;;25.66;27.99;97257.97;5001959;28;20691;-32
2022/02/05 11:51:22;;;;;;;4.53;1.65;;;;;;;25.67;28.06;97249.16;5002638;28;20037;-30
2022/02/05 11:54:00;;;;;;;6.57;1.60;;;;;;;25.67;28.07;97251.78;5002289;28;20616;-32
2022/02/05 11:59:19;;;;;;;3.42;1.50;;;;;;;25.70;28.25;97256.88;5003143;28;20042;-31
2022/02/05 12:01:45;;;;;;;15.73;1.98;;;;;;;25.71;28.16;97258.59;5003696;28;20124;-33
2022/02/05 12:04:13;;;;;;;5.25;1.60;;;;;;;25.72;28.17;97247.19;4996630;28;20437;-28
2022/02/05 12:06:49;;;;;;;5.43;1.65;;;;;;;25.72;28.23;97247.19;4996696;28;20033;-27
2022/02/05 12:09:33;;;;;;;3.63;1.40;;;;;;;25.73;28.41;97243.63;5001356;28;20025;-30
2022/02/05 12:12:34;;;;;;;4.78;1.55;;;;;;;25.75;28.50;97249.66;5004648;28;20115;-32
2022/02/05 12:15:15;;;;;;;6.75;1.67;;;;;;;25.75;28.54;97252.28;5002559;28;20472;-31
2022/02/05 12:18:03;;;;;;;6.35;1.60;;;;;;;25.75;28.43;97252.28;5002728;28;20155;-31
2022/02/05 12:20:32;;;;;;;4.80;1.90;;;;;;;25.76;28.56;97246.13;4999845;28;20044;-32
2022/02/05 12:23:10;;;;;;;9.00;1.42;;;;;;;25.77;28.57;97239.94;5001538;28;20037;-29
2022/02/05 12:25:57;;;;;;;5.47;1.40;;;;;;;25.78;28.79;97232.94;4997467;28;20060;-28
2022/02/05 12:28:28;;;;;;;5.97;1.40;;;;;;;25.82;28.49;97226.59;4994146;28;20595;-29
2022/02/05 12:30:54;;;;;;;5.03;1.25;;;;;;;25.83;28.74;97234.38;4999340;28;20026;-32
2022/02/05 12:33:19;;;;;;;3.05;1.05;;;;;;;25.85;28.51;97223.00;5008143;28;20067;-29
2022/02/05 12:35:50;;;;;;;5.40;1.30;;;;;;;25.88;28.66;97217.56;4999675;28;20029;-31
2022/02/05 12:38:16;;;;;;;3.85;1.40;;;;;;;25.90;28.71;97221.00;4999795;28;20053;-26
2022/02/05 12:40:45;;;;;;;3.25;1.25;;;;;;;25.93;28.68;97220.88;4994650;28;20040;-30
2022/02/05 12:43:13;;;;;;;5.85;1.50;;;;;;;25.96;28.55;97218.06;4997264;28;20912;-28
2022/02/05 12:46:11;;;;;;;4.97;1.35;;;;;;;25.97;28.50;97209.25;5001409;28;20037;-31
2022/02/05 12:48:36;;;;;;;6.30;1.30;;;;;;;26.01;28.59;97207.34;4992331;28;20103;-30
2022/02/05 12:51:03;;;;;;;2.15;1.23;;;;;;;26.03;28.55;97213.38;5009768;28;20033;-29
2022/02/05 12:53:33;;;;;;;3.22;1.10;;;;;;;26.05;28.75;97211.53;4984462;28;20054;-30
2022/02/05 12:56:18;;;;;;;9.18;1.30;;;;;;;26.07;28.67;97207.91;4998253;28;20030;-33
2022/02/05 12:59:02;;;;;;;2.25;1.10;;;;;;;26.09;28.76;97205.22;5000980;28;20044;-31
2022/02/05 13:01:31;;;;;;;14.80;1.60;;;;;;;26.07;28.80;97200.03;4993191;28;20026;-29
2022/02/05 13:04:13;;;;;;;1.58;1.20;;;;;;;26.12;28.74;97201.59;4989354;28;21458;-30
2022/02/05 13:06:39;;;;;;;3.70;1.08;;;;;;;26.13;28.84;97219.06;4978715;28;20022;-32
2022/02/05 13:09:17;;;;;;;3.20;1.10;;;;;;;26.15;28.75;97214.56;4993212;28;20796;-29
2022/02/05 13:11:42;;;;;;;4.70;1.00;;;;;;;26.17;28.70;97210.09;4992269;28;20111;-31
2022/02/05 13:14:08;;;;;;;2.60;1.30;;;;;;;26.18;28.74;97209.16;4991527;28;20257;-28
2022/02/05 13:16:37;;;;;;;4.90;1.25;;;;;;;26.20;28.81;97215.22;4995982;28;20751;-30
2022/02/05 13:19:18;;;;;;;4.05;1.13;;;;;;;26.21;28.91;97206.41;4991675;28;20076;-31
2022/02/05 13:27:30;;;;;;;5.70;0.70;;;;;;;26.24;28.82;97198.38;4993600;28;20034;-32
2022/02/05 13:33:35;;;;;;;6.30;1.10;;;;;;;26.26;28.80;97199.19;4993621;28;20873;-31
2022/02/05 13:35:26;;;;;;;4.95;1.20;;;;;;;26.27;28.83;97185.09;5005569;28;20112;-28
2022/02/05 13:37:56;;;;;;;2.47;1.05;;;;;;;26.28;29.00;97193.84;5005003;28;20500;-29
2022/02/05 13:40:29;;;;;;;8.02;1.35;;;;;;;26.29;28.88;97187.66;5006393;28;20029;-29
2022/02/05 13:43:05;;;;;;;5.18;1.30;;;;;;;26.29;29.06;97185.03;5002390;28;20084;-28
2022/02/05 13:45:35;;;;;;;8.70;1.23;;;;;;;26.30;29.08;97186.72;4998894;28;20096;-28
2022/02/05 13:48:04;;;;;;;2.90;0.80;;;;;;;26.31;29.10;97186.66;4997881;28;20830;-28
2022/02/05 13:50:32;;;;;;;6.60;1.20;;;;;;;26.34;29.13;97193.53;4996910;28;20029;-29
2022/02/05 13:53:02;;;;;;;4.18;1.10;;;;;;;26.35;29.06;97192.59;4997807;28;20039;-29
2022/02/05 13:55:34;;;;;;;4.40;1.27;;;;;;;26.35;29.03;97190.84;5004134;28;20100;-30
2022/02/05 13:58:12;;;;;;;3.17;1.10;;;;;;;26.35;29.00;97188.22;5002684;28;20129;-29
2022/02/05 14:00:50;;;;;;;2.65;1.10;;;;;;;26.37;29.18;97189.91;4995248;28;20048;-28
2022/02/05 14:03:27;;;;;;;2.67;0.88;;;;;;;26.39;29.20;97188.06;4995767;28;20428;-30
2022/02/05 14:06:00;;;;;;;6.10;1.30;;;;;;;26.39;29.16;97188.06;4997409;28;21646;-27
2022/02/05 14:08:30;;;;;;;5.63;1.20;;;;;;;26.39;29.18;97186.28;4996879;28;20904;-30
2022/02/05 14:10:57;;;;;;;3.47;1.27;;;;;;;26.41;29.13;97186.22;4998084;28;20028;-29
2022/02/05 14:13:22;;;;;;;3.45;1.00;;;;;;;26.41;29.11;97189.69;4999375;28;20087;-27
2022/02/05 14:15:53;;;;;;;3.65;0.95;;;;;;;26.42;29.09;97193.16;4997350;28;20037;-32
2022/02/05 14:18:19;;;;;;;6.57;1.02;;;;;;;26.40;29.15;97189.78;5002328;28;20515;-31
2022/02/05 14:21:03;;;;;;;7.93;1.20;;;;;;;26.44;29.23;97207.94;4996284;28;20037;-29